Terminal Aerodrome Forecast
Issued by NWS Austin/San Antonio, TX

Home | Current Version | Previous Version | Text Only | Print | Product List | Glossary On
Versions: 1 2 3 4 5 6 7 8 9 10 11 12 13 14 15 16 17 18 19 20 21 22 23 24 25 26 27 28
000
FTUS44 KEWX 160538
TAFDRT
TAF
KDRT 160538Z 1606/1706 12007KT P6SM SKC
     FM161200 12010KT P6SM BKN020
     FM161600 14013KT P6SM SCT070
     FM162300 15013G23KT P6SM SCT070
     FM170300 13007KT P6SM SKC=

USA.gov is the U.S. government's official web portal to all federal, state and local government web resources and services.